Woodson Terrace, Missouri
Current Conditions -  °F | °C
As of 3:51 AM on Sunday 25 Jan 2015 (Local Time) from KSTL Reporting Station
Light Rain Light Rain  
Wind Chill: 44°   Ceiling: 4700
Heat Index: 48°   Visibility: 10mi
Dew Point: 39°   Wind: 9mph
Humidity: 71%   Direction: 240°WSW
Pressure: 29.63"   Gusts: NA
Location:  38.7422°N, 90.3457°W
Report Text: KSTL 250951Z 24008KT 10SM -RA BKN047 OVC055 09/04 A2963 RMK AO2 SLP033 P0002 T00890039
Loading
Personal Weather Stations






























Interactive Weather Map New forecast layout! Learn more

10-Day Weather Forecast

Advertisements
Track Severe Weather on mobile